Latest  Newer  Older  Last 2 hours slideshow  Last 24 hours slideshow  Refresh every 5 minutes 
Current image  Latest image  Rain/snow radar  Cloud coverage sat images 

All time is UTC (add 2 hours to UTC in wintertime, 3 hours to UTC in DST for Latvia local time)

2020/09/30 03:50 EVRA 300350Z 36002KT 0900 0650 R18/P2000N FG SCT003 05/05 Q1018 TEMPO 0700 FG
2020/09/30 03:50 EVLA 300350Z AUTO VRB02KT 1100 R06/1300D R24/1500U FG FEW002/// 04/04 Q1018
2020/09/30 03:50 EVVA 300350Z AUTO 00000KT 0350 FG VV001 06/06 Q1018
2020/09/30 03:50 EYKA 300350Z 01005KT 340V040 CAVOK 09/07 Q1015
2020/09/30 03:50 EYPA 300350Z 05006KT CAVOK 08/07 Q1017
2020/09/30 03:50 EYSA 300350Z 01005KT 7000 NSC 06/06 Q1017 WHT TEMPO 8000 BLU
2020/09/30 03:50 EYVI 300350Z 02005KT 9999 BKN004 09/08 Q1014 NOSIG
2020/09/30 03:50 EEKA 300350Z 09002KT 0500 FG BKN002 OVC017 12/12 Q1020
2020/09/30 03:50 EEKE 300350Z AUTO 36004KT 6000NDV NCD 05/05 Q1019
2020/09/29 13:20 EEPU 291320Z 21002KT 9999 OVC023 15/15 Q1019
2020/09/30 03:50 EETN 300350Z 09004KT 9999 OVC003 12/12 Q1020 NOSIG
2020/09/30 03:50 EETU 300350Z AUTO 10005KT 0350 R26/1600U FG OVC002/// 12/11 Q1019
   RIGA AIRPORT     EVRA               56 55N  023 58E   10   X     T          6 LV
   LIEPAJA INTL     EVLA        26406  56 31N  021 06E    4   X                8 LV
   VENTPILS         EVVA               57 21N  021 33E    6   X                8 LV
   KAUNAS           EYKA               54 54N  023 55E   77   X     T          6 LT
   PALANGA INTL     EYPA               55 55N  021 03E   10   X                6 LT
   SIAULIAI INTL    EYSA               55 54N  023 24E  135   X     T          6 LT
   VILNIUS INTL     EYVI        26730  54 38N  025 17E  197   X     T          6 LT
   KARDLA           EEKA        26116  58 59N  022 50E    4   X                8 EE
   KURESSAARE       EEKE               58 14N  022 31E    4   X                8 EE
   PARNU            EEPU               58 25N  024 28E   14   X                8 EE
   TALLINN          EETN        26038  59 24N  024 49E   40   X     T          8 EE
   TARTU            EETU               58 19N  026 41E   67   X                8 EE